createdAt,value
2022-08-03T00:00:26.698Z,101055.13
2022-08-03T00:02:53.991Z,101057.22
2022-08-03T00:05:21.089Z,101052.88
2022-08-03T00:07:48.499Z,101056.22
2022-08-03T00:10:16.963Z,101064.75
2022-08-03T00:12:43.794Z,101057.69
2022-08-03T00:15:15.221Z,101051.66
2022-08-03T00:17:52.039Z,101048.56
2022-08-03T00:20:21.533Z,101048.56
2022-08-03T00:22:48.716Z,101042.50
2022-08-03T00:25:15.756Z,101041.91
2022-08-03T00:27:42.463Z,101029.66
2022-08-03T00:30:09.898Z,101029.25
2022-08-03T00:32:36.709Z,101043.38
2022-08-03T00:35:09.165Z,101044.44
2022-08-03T00:37:41.641Z,101048.19
2022-08-03T00:40:13.781Z,101048.59
2022-08-03T00:42:50.749Z,101047.56
2022-08-03T00:45:18.719Z,101047.56
2022-08-03T00:47:45.784Z,101052.97
2022-08-03T00:50:14.614Z,101049.66
2022-08-03T00:52:41.820Z,101048.41
2022-08-03T00:55:09.900Z,101041.13
2022-08-03T00:57:37.458Z,101041.78
2022-08-03T01:00:07.175Z,101038.44
2022-08-03T01:02:34.098Z,101037.81
2022-08-03T01:05:00.927Z,101037.22
2022-08-03T01:07:49.334Z,101032.22
2022-08-03T01:10:28.724Z,101029.56
2022-08-03T01:14:03.611Z,101037.84
2022-08-03T01:16:08.696Z,101040.78
2022-08-03T01:18:52.909Z,101041.19
2022-08-03T01:22:06.627Z,101034.78
2022-08-03T01:25:14.047Z,101039.34
2022-08-03T01:27:43.454Z,101042.44
2022-08-03T01:30:12.599Z,101036.44
2022-08-03T01:32:58.121Z,101042.50
2022-08-03T01:35:42.425Z,101037.72
2022-08-03T01:38:15.902Z,101044.34
2022-08-03T01:40:45.044Z,101029.63
2022-08-03T01:44:27.652Z,101034.41
2022-08-03T01:46:03.955Z,101027.75
2022-08-03T01:48:32.060Z,101033.16
2022-08-03T01:51:00.269Z,101035.22
2022-08-03T01:53:28.809Z,101027.94
2022-08-03T01:55:57.582Z,101029.81
2022-08-03T01:58:25.925Z,101026.91
2022-08-03T02:00:54.049Z,101034.41
2022-08-03T02:03:22.915Z,101033.56
2022-08-03T02:06:01.252Z,101036.47
2022-08-03T02:08:39.729Z,101041.84
2022-08-03T02:11:07.285Z,101036.03
2022-08-03T02:13:35.533Z,101038.13
2022-08-03T02:16:05.746Z,101044.34
2022-08-03T02:18:33.546Z,101036.00
2022-08-03T02:21:11.105Z,101041.00
2022-08-03T02:23:38.596Z,101052.00
2022-08-03T02:26:09.456Z,101032.28
2022-08-03T02:28:38.959Z,101032.47
2022-08-03T02:31:14.052Z,101034.34
2022-08-03T02:33:49.847Z,101033.94
2022-08-03T02:36:24.446Z,101036.44
2022-08-03T02:38:56.220Z,101038.50
2022-08-03T02:41:28.332Z,101035.09
2022-08-03T02:44:06.414Z,101039.66
2022-08-03T02:46:38.723Z,101036.34
2022-08-03T02:49:49.431Z,101038.00
2022-08-03T02:51:55.401Z,101029.50
2022-08-03T02:54:23.955Z,101033.44
2022-08-03T02:56:52.654Z,101033.22
2022-08-03T02:59:21.199Z,101041.31
2022-08-03T03:01:49.236Z,101038.81
2022-08-03T03:04:16.598Z,101044.84
2022-08-03T03:06:45.269Z,101041.94
2022-08-03T03:09:15.248Z,101041.50
2022-08-03T03:11:44.235Z,101038.41
2022-08-03T03:14:13.629Z,101041.88
2022-08-03T03:16:42.935Z,101036.88
2022-08-03T03:19:13.139Z,101038.31
2022-08-03T03:21:40.739Z,101042.41
2022-08-03T03:24:09.578Z,101044.06
2022-08-03T03:26:40.697Z,101041.16
2022-08-03T03:29:09.861Z,101044.06
2022-08-03T03:31:37.423Z,101043.84
2022-08-03T03:34:05.214Z,101039.06
2022-08-03T03:36:33.649Z,101047.13
2022-08-03T03:39:00.495Z,101053.16
2022-08-03T03:41:43.514Z,101047.97
2022-08-03T03:44:10.534Z,101037.34
2022-08-03T03:46:38.927Z,101050.44
2022-08-03T03:49:08.990Z,101053.91
2022-08-03T03:51:35.836Z,101046.63
2022-08-03T03:54:07.576Z,101046.34
2022-08-03T03:56:34.547Z,101061.88
2022-08-03T03:59:01.503Z,101062.09
2022-08-03T04:01:28.920Z,101055.47
2022-08-03T04:03:55.752Z,101048.06
2022-08-03T04:06:40.993Z,101052.34
2022-08-03T04:09:29.335Z,101060.16
2022-08-03T04:12:01.151Z,101057.44
2022-08-03T04:14:35.359Z,101056.59
2022-08-03T04:17:05.053Z,101050.19
2022-08-03T04:19:39.667Z,101039.41
2022-08-03T04:22:09.929Z,101056.22
2022-08-03T04:24:49.774Z,101046.97
2022-08-03T04:27:21.521Z,101038.81
2022-08-03T04:29:51.775Z,101052.97
2022-08-03T04:32:20.633Z,101047.78
2022-08-03T04:34:47.915Z,101049.72
2022-08-03T04:37:41.866Z,101054.06
2022-08-03T04:40:13.564Z,101052.00
2022-08-03T04:42:43.089Z,101060.50
2022-08-03T04:45:13.218Z,101055.97
2022-08-03T04:47:40.386Z,101053.88
2022-08-03T04:50:12.504Z,101054.31
2022-08-03T04:52:40.342Z,101057.47
2022-08-03T04:55:08.510Z,101051.06
2022-08-03T04:57:35.445Z,101062.91
2022-08-03T05:00:03.698Z,101056.72
2022-08-03T05:02:32.194Z,101049.53
2022-08-03T05:04:59.599Z,101055.13
2022-08-03T05:07:34.087Z,101059.28
2022-08-03T05:10:05.695Z,101060.34
2022-08-03T05:12:42.575Z,101059.16
2022-08-03T05:15:09.892Z,101056.66
2022-08-03T05:17:37.017Z,101049.19
2022-08-03T05:20:04.893Z,101060.81
2022-08-03T05:22:31.897Z,101057.34
2022-08-03T05:24:58.618Z,101055.09
2022-08-03T05:27:25.342Z,101051.38
2022-08-03T05:29:52.405Z,101058.00
2022-08-03T05:32:19.403Z,101053.69
2022-08-03T05:34:46.342Z,101050.56
2022-08-03T05:37:13.252Z,101051.81
2022-08-03T05:39:39.957Z,101041.03
2022-08-03T05:42:06.682Z,101046.44
2022-08-03T05:44:33.525Z,101044.56
2022-08-03T05:47:00.378Z,101048.72
2022-08-03T05:49:27.213Z,101043.94
2022-08-03T05:52:00.021Z,101039.16
2022-08-03T05:54:56.918Z,101034.38
2022-08-03T05:57:24.956Z,101046.63
2022-08-03T05:59:54.764Z,101041.00
2022-08-03T06:02:26.585Z,101044.50
2022-08-03T06:04:53.701Z,101046.34
2022-08-03T06:07:20.354Z,101042.41
2022-08-03T06:10:35.007Z,101050.06
2022-08-03T06:12:36.293Z,101045.03
2022-08-03T06:15:04.504Z,101047.91
2022-08-03T06:17:37.470Z,101047.28
2022-08-03T06:20:05.961Z,101042.44
2022-08-03T06:22:34.798Z,101037.88
2022-08-03T06:25:04.827Z,101040.13
2022-08-03T06:27:37.249Z,101043.81
2022-08-03T06:30:05.415Z,101046.91
2022-08-03T06:32:32.377Z,101050.13
2022-08-03T06:34:59.826Z,101048.22
2022-08-03T06:37:27.286Z,101036.75
2022-08-03T06:39:54.354Z,101052.88
2022-08-03T06:42:22.583Z,101049.09
2022-08-03T06:44:50.111Z,101046.97
2022-08-03T06:47:17.374Z,101046.44
2022-08-03T06:49:44.333Z,101048.44
2022-08-03T06:52:37.621Z,101049.59
2022-08-03T06:55:06.537Z,101051.94
2022-08-03T06:57:33.277Z,101038.09
2022-08-03T07:00:09.050Z,101046.56
2022-08-03T07:02:38.867Z,101043.47
2022-08-03T07:05:06.906Z,101049.81
2022-08-03T07:07:33.892Z,101059.28
2022-08-03T07:10:00.828Z,101049.94
2022-08-03T07:12:30.702Z,101047.88
2022-08-03T07:15:01.223Z,101050.63
2022-08-03T07:17:30.399Z,101054.50
2022-08-03T07:19:57.770Z,101053.91
2022-08-03T07:22:24.420Z,101054.09
2022-08-03T07:24:51.140Z,101051.97
2022-08-03T07:27:17.875Z,101056.13
2022-08-03T07:29:44.658Z,101050.09
2022-08-03T07:32:11.631Z,101056.19
2022-08-03T07:34:38.614Z,101058.44
2022-08-03T07:37:05.562Z,101052.25
2022-08-03T07:39:32.419Z,101056.75
2022-08-03T07:41:59.288Z,101044.19
2022-08-03T07:44:26.051Z,101049.63
2022-08-03T07:46:53.096Z,101045.56
2022-08-03T07:49:20.129Z,101045.31
2022-08-03T07:52:07.000Z,101047.19
2022-08-03T07:54:33.869Z,101043.25
2022-08-03T07:57:00.768Z,101038.59
2022-08-03T07:59:27.641Z,101044.38
2022-08-03T08:01:54.520Z,101046.94
2022-08-03T08:04:21.511Z,101050.44
2022-08-03T08:06:48.346Z,101047.94
2022-08-03T08:09:17.239Z,101050.25
2022-08-03T08:11:44.139Z,101034.75
2022-08-03T08:14:10.857Z,101050.00
2022-08-03T08:16:37.518Z,101048.03
2022-08-03T08:19:04.776Z,101038.84
2022-08-03T08:21:53.093Z,101042.34
2022-08-03T08:24:20.800Z,101045.22
2022-08-03T08:26:49.195Z,101033.56
2022-08-03T08:29:16.057Z,101041.19
2022-08-03T08:31:42.890Z,101048.25
2022-08-03T08:34:09.692Z,101045.28
2022-08-03T08:36:36.499Z,101037.19
2022-08-03T08:39:03.551Z,101045.13
2022-08-03T08:41:34.003Z,101041.50
2022-08-03T08:44:04.094Z,101054.59
2022-08-03T08:46:33.423Z,101043.94
2022-08-03T08:49:00.914Z,101037.66
2022-08-03T08:51:54.933Z,101046.03
2022-08-03T08:54:25.862Z,101048.63
2022-08-03T08:56:56.260Z,101061.44
2022-08-03T08:59:24.577Z,101059.84
2022-08-03T09:01:51.573Z,101046.06
2022-08-03T09:04:18.989Z,101056.25
2022-08-03T09:07:04.407Z,101052.06
2022-08-03T09:10:10.452Z,101057.28
2022-08-03T09:12:41.208Z,101056.03
2022-08-03T09:15:22.807Z,101059.25
2022-08-03T09:17:51.888Z,101065.69
2022-08-03T09:20:20.259Z,101070.84
2022-08-03T09:22:54.930Z,101056.16
2022-08-03T09:25:29.218Z,101058.56
2022-08-03T09:28:08.579Z,101047.94
2022-08-03T09:30:37.007Z,101052.28
2022-08-03T09:33:08.336Z,101052.94
2022-08-03T09:35:54.120Z,101064.63
2022-08-03T09:38:26.387Z,101056.28
2022-08-03T09:40:59.856Z,101045.66
2022-08-03T09:43:28.371Z,101053.38
2022-08-03T09:46:05.649Z,101049.13
2022-08-03T09:48:37.410Z,101046.97
2022-08-03T09:51:13.593Z,101054.50
2022-08-03T09:53:58.885Z,101047.19
2022-08-03T09:56:47.559Z,101060.69
2022-08-03T09:59:24.854Z,101054.75
2022-08-03T10:01:54.006Z,101052.91
2022-08-03T10:04:25.688Z,101052.50
2022-08-03T10:07:09.507Z,101049.72
2022-08-03T10:09:38.242Z,101040.25
2022-08-03T10:12:13.144Z,101043.56
2022-08-03T10:14:42.115Z,101047.41
2022-08-03T10:17:10.018Z,101054.22
2022-08-03T10:19:36.812Z,101046.28
2022-08-03T10:22:37.338Z,101044.03
2022-08-03T10:25:07.842Z,101046.66
2022-08-03T10:27:39.940Z,101037.31
2022-08-03T10:30:09.838Z,101050.97
2022-08-03T10:32:42.208Z,101049.63
2022-08-03T10:35:20.501Z,101049.22
2022-08-03T10:38:29.321Z,101038.56
2022-08-03T10:40:59.081Z,101036.41
2022-08-03T10:43:36.471Z,101039.59
2022-08-03T10:46:07.333Z,101029.88
2022-08-03T10:48:36.096Z,101036.59
2022-08-03T10:51:03.742Z,101020.19
2022-08-03T10:53:40.536Z,101029.91
2022-08-03T10:57:14.375Z,101034.59
2022-08-03T10:59:47.499Z,101031.34
2022-08-03T11:02:15.432Z,101030.94
2022-08-03T11:04:43.001Z,101028.63
2022-08-03T11:07:23.683Z,101023.78
2022-08-03T11:09:53.291Z,101022.84
2022-08-03T11:12:32.256Z,101015.66
2022-08-03T11:15:02.143Z,101014.88
2022-08-03T11:17:29.098Z,101026.19
2022-08-03T11:19:56.668Z,101020.31
2022-08-03T11:22:26.202Z,101017.53
2022-08-03T11:24:57.447Z,101019.78
2022-08-03T11:27:26.371Z,101010.16
2022-08-03T11:30:13.950Z,101013.31
2022-08-03T11:32:48.272Z,101019.47
2022-08-03T11:35:35.549Z,101001.06
2022-08-03T11:38:07.589Z,101011.34
2022-08-03T11:40:46.046Z,101017.16
2022-08-03T11:43:31.789Z,101006.66
2022-08-03T11:46:07.375Z,100999.91
2022-08-03T11:48:35.144Z,101000.19
2022-08-03T11:51:03.124Z,101007.94
2022-08-03T11:53:31.449Z,101006.38
2022-08-03T11:56:02.979Z,100997.69
2022-08-03T11:59:00.815Z,100995.22
2022-08-03T12:01:22.728Z,100994.38
2022-08-03T12:03:50.356Z,101004.34
2022-08-03T12:06:18.951Z,101000.78
2022-08-03T12:08:46.529Z,100984.97
2022-08-03T12:11:15.435Z,100998.31
2022-08-03T12:14:10.710Z,100989.03
2022-08-03T12:16:38.386Z,100995.56
2022-08-03T12:19:07.148Z,100987.25
2022-08-03T12:21:34.083Z,100984.28
2022-08-03T12:24:05.533Z,100988.69
2022-08-03T12:26:58.643Z,100992.66
2022-08-03T12:29:26.710Z,100979.97
2022-08-03T12:31:53.774Z,100993.44
2022-08-03T12:34:21.120Z,100986.25
2022-08-03T12:36:53.643Z,100983.34
2022-08-03T12:39:24.891Z,100973.19
2022-08-03T12:41:56.000Z,100966.16
2022-08-03T12:44:36.585Z,100973.56
2022-08-03T12:47:04.892Z,100965.50
2022-08-03T12:49:49.453Z,100971.94
2022-08-03T12:52:18.068Z,100973.75
2022-08-03T12:54:58.843Z,100971.34
2022-08-03T12:57:40.047Z,100974.91
2022-08-03T13:00:29.211Z,100967.22
2022-08-03T13:03:38.975Z,100962.31
2022-08-03T13:05:53.045Z,100970.91
2022-08-03T13:08:24.907Z,100967.06
2022-08-03T13:10:52.070Z,100958.50
2022-08-03T13:13:20.902Z,100973.03
2022-08-03T13:15:49.187Z,100964.38
2022-08-03T13:18:17.361Z,100957.13
2022-08-03T13:20:44.560Z,100963.09
2022-08-03T13:23:16.189Z,100964.53
2022-08-03T13:25:55.404Z,100957.06
2022-08-03T13:28:23.628Z,100966.88
2022-08-03T13:30:51.328Z,100959.34
2022-08-03T13:33:18.619Z,100954.13
2022-08-03T13:35:45.672Z,100967.50
2022-08-03T13:38:12.638Z,100961.47
2022-08-03T13:40:42.365Z,100968.69
2022-08-03T13:43:09.571Z,100964.31
2022-08-03T13:45:36.373Z,100950.72
2022-08-03T13:48:03.144Z,100954.16
2022-08-03T13:50:31.462Z,100948.94
2022-08-03T13:52:58.270Z,100950.06
2022-08-03T13:55:24.973Z,100944.19
2022-08-03T13:58:04.604Z,100946.53
2022-08-03T14:00:34.350Z,100937.44
2022-08-03T14:03:13.332Z,100954.09
2022-08-03T14:05:41.821Z,100945.28
2022-08-03T14:08:08.740Z,100941.56
2022-08-03T14:10:43.000Z,100946.75
2022-08-03T14:13:12.777Z,100941.00
2022-08-03T14:15:50.107Z,100939.50
2022-08-03T14:18:28.804Z,100938.63
2022-08-03T14:21:06.958Z,100940.91
2022-08-03T14:23:35.812Z,100941.22
2022-08-03T14:26:02.604Z,100939.13
2022-08-03T14:28:29.923Z,100930.56
2022-08-03T14:30:57.079Z,100940.91
2022-08-03T14:33:24.249Z,100937.56
2022-08-03T14:35:52.224Z,100938.69
2022-08-03T14:38:19.254Z,100933.84
2022-08-03T14:40:46.442Z,100930.13
2022-08-03T14:43:14.147Z,100934.88
2022-08-03T14:45:43.582Z,100921.69
2022-08-03T14:50:28.787Z,100929.16
2022-08-03T14:50:59.544Z,100935.59
2022-08-03T14:53:26.392Z,100932.44
2022-08-03T14:55:53.572Z,100926.03
2022-08-03T14:58:25.461Z,100929.06
2022-08-03T15:00:53.797Z,100921.47
2022-08-03T15:03:23.962Z,100917.53
2022-08-03T15:05:56.298Z,100912.94
2022-08-03T15:08:24.600Z,100908.81
2022-08-03T15:10:51.815Z,100914.03
2022-08-03T15:13:19.849Z,100912.13
2022-08-03T15:15:47.794Z,100902.97
2022-08-03T15:18:14.579Z,100904.38
2022-08-03T15:20:46.325Z,100902.81
2022-08-03T15:23:17.807Z,100892.69
2022-08-03T15:26:28.086Z,100892.84
2022-08-03T15:28:33.654Z,100893.88
2022-08-03T15:31:01.258Z,100895.94
2022-08-03T15:33:28.730Z,100898.34
2022-08-03T15:35:56.827Z,100895.22
2022-08-03T15:38:25.925Z,100885.22
2022-08-03T15:40:57.170Z,100890.13
2022-08-03T15:43:24.340Z,100885.25
2022-08-03T15:46:19.045Z,100887.31
2022-08-03T15:48:39.048Z,100889.03
2022-08-03T15:51:06.801Z,100893.25
2022-08-03T15:53:33.949Z,100892.53
2022-08-03T15:56:05.165Z,100897.56
2022-08-03T15:59:10.192Z,100886.63
2022-08-03T16:01:21.799Z,100888.78
2022-08-03T16:03:49.015Z,100881.66
2022-08-03T16:06:16.025Z,100882.56
2022-08-03T16:08:43.207Z,100883.75
2022-08-03T16:11:10.883Z,100878.50
2022-08-03T16:14:13.257Z,100886.50
2022-08-03T16:16:24.594Z,100890.00
2022-08-03T16:18:51.560Z,100889.00
2022-08-03T16:21:19.405Z,100885.34
2022-08-03T16:23:48.857Z,100881.22
2022-08-03T16:26:15.665Z,100889.06
2022-08-03T16:28:42.605Z,100889.47
2022-08-03T16:31:09.602Z,100881.88
2022-08-03T16:33:36.596Z,100881.47
2022-08-03T16:36:03.837Z,100885.19
2022-08-03T16:38:31.383Z,100870.72
2022-08-03T16:41:01.168Z,100878.31
2022-08-03T16:43:28.489Z,100886.81
2022-08-03T16:45:55.536Z,100882.22
2022-08-03T16:48:23.662Z,100879.88
2022-08-03T16:50:51.248Z,100885.69
2022-08-03T16:53:33.502Z,100885.47
2022-08-03T16:56:09.882Z,100880.41
2022-08-03T16:58:42.450Z,100887.09
2022-08-03T17:01:21.667Z,100884.16
2022-08-03T17:04:01.890Z,100881.28
2022-08-03T17:06:34.056Z,100886.13
2022-08-03T17:09:02.140Z,100888.59
2022-08-03T17:11:32.097Z,100878.91
2022-08-03T17:14:00.163Z,100890.66
2022-08-03T17:16:28.358Z,100883.44
2022-08-03T17:19:03.992Z,100884.81
2022-08-03T17:21:39.959Z,100887.44
2022-08-03T17:24:19.752Z,100890.47
2022-08-03T17:26:51.109Z,100881.97
2022-08-03T17:29:23.090Z,100882.78
2022-08-03T17:31:53.485Z,100886.88
2022-08-03T17:34:21.684Z,100895.25
2022-08-03T17:37:27.373Z,100880.31
2022-08-03T17:39:58.380Z,100881.94
2022-08-03T17:42:30.634Z,100892.06
2022-08-03T17:45:01.936Z,100893.69
2022-08-03T17:47:42.032Z,100892.06
2022-08-03T17:50:23.517Z,100890.84
2022-08-03T17:53:07.532Z,100904.75
2022-08-03T17:55:55.169Z,100899.69
2022-08-03T17:58:58.115Z,100909.25
2022-08-03T18:05:02.349Z,100911.69
2022-08-03T18:08:01.668Z,100903.00
2022-08-03T18:10:36.088Z,100906.56
2022-08-03T18:13:20.803Z,100907.41
2022-08-03T18:15:58.191Z,100910.25
2022-08-03T18:18:34.798Z,100904.47
2022-08-03T18:23:52.320Z,100903.59
2022-08-03T18:26:20.431Z,100919.91
2022-08-03T18:28:52.820Z,100909.13
2022-08-03T18:32:00.564Z,100919.78
2022-08-03T18:34:19.088Z,100914.13
2022-08-03T18:36:56.833Z,100919.69
2022-08-03T18:39:23.990Z,100914.81
2022-08-03T18:41:51.705Z,100911.72
2022-08-03T18:44:37.661Z,100916.16
2022-08-03T18:47:23.251Z,100918.38
2022-08-03T18:50:19.326Z,100924.16
2022-08-03T18:53:16.110Z,100913.75
2022-08-03T18:56:03.470Z,100922.88
2022-08-03T18:59:02.588Z,100916.06
2022-08-03T19:01:57.694Z,100916.91
2022-08-03T19:04:32.564Z,100916.38
2022-08-03T19:07:08.908Z,100911.97
2022-08-03T19:09:49.920Z,100915.28
2022-08-03T19:12:32.300Z,100916.66
2022-08-03T19:15:05.341Z,100920.22
2022-08-03T19:17:36.191Z,100920.00
2022-08-03T19:20:08.968Z,100919.47
2022-08-03T19:22:45.709Z,100933.13
2022-08-03T19:25:12.780Z,100919.69
2022-08-03T19:27:40.844Z,100923.81
2022-08-03T19:30:21.779Z,100921.59
2022-08-03T19:32:54.184Z,100932.25
2022-08-03T19:35:51.216Z,100936.31
2022-08-03T19:38:10.698Z,100936.56
2022-08-03T19:40:43.759Z,100939.25
2022-08-03T19:43:22.685Z,100938.66
2022-08-03T19:46:06.424Z,100938.38
2022-08-03T19:48:36.844Z,100933.97
2022-08-03T19:51:12.519Z,100944.91
2022-08-03T19:53:45.187Z,100941.88
2022-08-03T19:56:14.398Z,100932.28
2022-08-03T19:58:44.335Z,100934.66
2022-08-03T20:01:21.130Z,100931.31
2022-08-03T20:03:50.118Z,100940.06
2022-08-03T20:06:18.255Z,100938.97
2022-08-03T20:08:51.601Z,100947.63
2022-08-03T20:11:20.524Z,100941.59
2022-08-03T20:13:57.821Z,100947.00
2022-08-03T20:16:25.437Z,100941.53
2022-08-03T20:18:52.491Z,100937.66
2022-08-03T20:21:23.283Z,100937.63
2022-08-03T20:24:03.142Z,100935.72
2022-08-03T20:26:48.308Z,100938.00
2022-08-03T20:30:05.274Z,100936.75
2022-08-03T20:32:16.236Z,100941.22
2022-08-03T20:34:43.290Z,100931.56
2022-08-03T20:37:10.092Z,100936.97
2022-08-03T20:39:39.170Z,100927.44
2022-08-03T20:42:13.242Z,100934.25
2022-08-03T20:44:58.918Z,100933.94
2022-08-03T20:47:35.735Z,100941.31
2022-08-03T20:50:04.478Z,100930.75
2022-08-03T20:52:43.936Z,100932.84
2022-08-03T20:55:17.040Z,100938.78
2022-08-03T20:57:49.216Z,100936.47
2022-08-03T21:00:21.844Z,100943.84
2022-08-03T21:02:49.329Z,100934.84
2022-08-03T21:05:17.674Z,100941.88
2022-08-03T21:08:05.584Z,100940.34
2022-08-03T21:10:37.888Z,100941.78
2022-08-03T21:12:56.257Z,100898.97
2022-08-03T21:13:04.350Z,100909.50
2022-08-03T21:13:18.492Z,100945.19
2022-08-03T21:16:02.884Z,100932.00
2022-08-03T21:18:44.637Z,100941.00
2022-08-03T21:21:14.387Z,100933.84
2022-08-03T21:23:49.129Z,100934.75
2022-08-03T21:26:17.576Z,100924.78
2022-08-03T21:28:46.768Z,100926.13
2022-08-03T21:31:21.368Z,100912.25
2022-08-03T21:33:59.797Z,100916.88
2022-08-03T21:36:31.048Z,100920.25
2022-08-03T21:39:00.391Z,100920.50
2022-08-03T21:41:29.488Z,100913.91
2022-08-03T21:43:56.648Z,100921.00
2022-08-03T21:46:27.455Z,100910.94
2022-08-03T21:50:04.748Z,100910.84
2022-08-03T21:51:49.600Z,100908.44
2022-08-03T21:54:19.788Z,100908.59
2022-08-03T21:56:50.611Z,100911.00
2022-08-03T21:59:20.391Z,100905.63
2022-08-03T22:01:51.475Z,100914.53
2022-08-03T22:04:50.756Z,100908.75
2022-08-03T22:07:09.762Z,100911.22
2022-08-03T22:09:37.001Z,100913.63
2022-08-03T22:12:04.705Z,100911.06
2022-08-03T22:14:34.205Z,100905.28
2022-08-03T22:17:03.402Z,100911.06
2022-08-03T22:19:33.230Z,100911.44
2022-08-03T22:22:01.704Z,100911.84
2022-08-03T22:24:32.067Z,100918.13
2022-08-03T22:27:20.841Z,100910.16
2022-08-03T22:29:49.973Z,100915.84
2022-08-03T22:32:17.227Z,100912.47
2022-08-03T22:34:46.496Z,100906.66
2022-08-03T22:37:16.020Z,100915.88
2022-08-03T22:39:44.117Z,100919.84
2022-08-03T22:42:12.056Z,100920.31
2022-08-03T22:44:39.741Z,100913.56
2022-08-03T22:47:07.323Z,100916.53
2022-08-03T22:49:36.998Z,100915.63
2022-08-03T22:52:04.395Z,100917.97
2022-08-03T22:54:32.970Z,100909.38
2022-08-03T22:57:00.027Z,100906.06
2022-08-03T22:59:39.817Z,100903.69
2022-08-03T23:02:20.869Z,100904.75
2022-08-03T23:04:57.017Z,100907.28
2022-08-03T23:10:33.389Z,100907.78
2022-08-03T23:13:01.199Z,100905.50
2022-08-03T23:15:30.660Z,100904.22
2022-08-03T23:17:58.829Z,100905.50
2022-08-03T23:20:29.010Z,100906.00
2022-08-03T23:22:57.761Z,100907.53
2022-08-03T23:25:24.852Z,100912.97
2022-08-03T23:28:05.146Z,100906.13
2022-08-03T23:30:37.389Z,100905.31
2022-08-03T23:33:04.609Z,100901.53
2022-08-03T23:36:29.294Z,100899.88
2022-08-03T23:38:37.341Z,100894.09
2022-08-03T23:41:04.947Z,100904.13
2022-08-03T23:43:52.143Z,100897.97
2022-08-03T23:46:22.673Z,100893.84
2022-08-03T23:48:51.142Z,100893.84
2022-08-03T23:51:42.424Z,100891.34
2022-08-03T23:54:26.782Z,100884.88
2022-08-03T23:57:14.708Z,100883.09
